Time;durP1;ratioP1;P1;durP2;ratioP2;P2;SDS_P1;SDS_P2;PMS_P1;PMS_P2;Temp;Humidity;BMP_temperature;BMP_pressure;BME280_temperature;BME280_humidity;BME280_pressure;Samples;Min_cycle;Max_cycle;Signal;HPM_P1;HPM_P2
2024/01/29 05:04:29;;;;;;;22.23;13.62;;;;;;;2.25;78.91;102807.09;5619352;31;80144;-54
2024/01/29 05:07:32;;;;;;;21.20;12.80;;;;;;;2.25;78.91;102807.09;5603651;31;33321;-54
2024/01/29 05:10:34;;;;;;;18.17;13.15;;;;;;;1.78;77.94;102802.41;5603663;31;33674;-55
2024/01/29 05:13:38;;;;;;;20.00;13.20;;;;;;;1.90;100.00;102812.69;5603688;31;33772;-57
2024/01/29 05:16:41;;;;;;;20.70;12.82;;;;;;;1.67;95.68;102810.66;5603694;31;34234;-56
2024/01/29 05:19:45;;;;;;;17.67;11.88;;;;;;;1.62;85.32;102808.50;5603582;31;33655;-56
2024/01/29 05:22:48;;;;;;;19.17;11.90;;;;;;;1.72;86.31;102820.72;5603618;31;33526;-57
2024/01/29 05:25:50;;;;;;;18.05;11.30;;;;;;;1.93;79.15;102817.66;5603539;31;33666;-56
2024/01/29 05:28:53;;;;;;;19.70;11.98;;;;;;;2.01;77.92;102825.59;5603751;31;34328;-57
2024/01/29 05:31:56;;;;;;;21.25;11.38;;;;;;;2.14;76.02;102823.28;5603448;31;33487;-57
2024/01/29 05:35:00;;;;;;;23.02;10.88;;;;;;;2.00;76.95;102824.75;5603419;31;33537;-57
2024/01/29 05:38:03;;;;;;;18.33;11.60;;;;;;;1.76;82.03;102808.88;5603355;31;33563;-57
2024/01/29 05:41:05;;;;;;;27.17;12.18;;;;;;;1.74;78.62;102806.37;5603457;31;33858;-57
2024/01/29 05:44:08;;;;;;;19.00;11.90;;;;;;;1.80;77.14;102800.44;5603274;31;33589;-57
2024/01/29 05:47:11;;;;;;;21.00;12.50;;;;;;;1.60;87.29;102796.41;5603383;31;33843;-57
2024/01/29 05:50:14;;;;;;;18.37;10.90;;;;;;;1.95;95.71;102810.38;5603384;31;34371;-57
2024/01/29 05:53:20;;;;;;;18.92;11.68;;;;;;;1.94;88.47;102798.97;5603270;31;34371;-57
2024/01/29 05:56:22;;;;;;;19.90;11.88;;;;;;;1.81;95.03;102803.91;5603311;31;34301;-57
2024/01/29 05:59:25;;;;;;;20.83;11.27;;;;;;;1.85;83.03;102806.06;5603300;31;33636;-57
2024/01/29 06:02:27;;;;;;;128.48;19.00;;;;;;;1.92;76.96;102811.53;5603032;31;34436;-57
2024/01/29 06:05:30;;;;;;;27.08;13.80;;;;;;;1.98;100.00;102815.34;5603120;31;33534;-57
2024/01/29 06:08:32;;;;;;;22.30;11.80;;;;;;;1.85;100.00;102807.88;5603320;31;33652;-57
2024/01/29 06:11:38;;;;;;;21.42;12.07;;;;;;;1.49;91.02;102815.22;5603057;31;33615;-57
2024/01/29 06:14:40;;;;;;;18.75;12.05;;;;;;;1.56;80.81;102811.78;5594186;31;33808;-57
2024/01/29 06:17:43;;;;;;;19.35;12.48;;;;;;;1.57;83.85;102821.34;5566373;31;34403;-57
2024/01/29 06:20:45;;;;;;;22.75;13.02;;;;;;;1.58;78.59;102823.00;5560839;31;32423;-57
2024/01/29 06:23:48;;;;;;;25.08;12.35;;;;;;;1.86;100.00;102820.94;5571200;31;34256;-60
2024/01/29 06:26:51;;;;;;;21.85;13.35;;;;;;;1.87;80.48;102825.22;5559892;31;33526;-59
2024/01/29 06:29:54;;;;;;;20.35;12.75;;;;;;;1.58;97.59;102830.94;5569783;32;33736;-59
2024/01/29 06:32:57;;;;;;;23.90;13.95;;;;;;;1.61;98.04;102832.44;5564286;31;34280;-60
2024/01/29 06:36:00;;;;;;;21.70;11.95;;;;;;;1.59;80.47;102829.13;5577358;31;34352;-59
2024/01/29 06:39:02;;;;;;;25.10;11.95;;;;;;;1.67;87.47;102831.81;5561637;31;33635;-59
2024/01/29 06:42:05;;;;;;;22.60;12.50;;;;;;;1.60;88.77;102831.62;5554079;32;34391;-59
2024/01/29 06:45:07;;;;;;;21.33;12.35;;;;;;;1.46;85.93;102824.31;5550771;32;33718;-60
2024/01/29 06:48:11;;;;;;;29.40;12.75;;;;;;;1.63;94.35;102828.66;5563984;32;33656;-59
2024/01/29 06:51:17;;;;;;;21.48;12.05;;;;;;;1.51;90.45;102827.28;5568314;32;33415;-59
2024/01/29 06:54:20;;;;;;;17.42;11.40;;;;;;;1.61;86.47;102835.91;5569811;32;34201;-60
2024/01/29 06:57:22;;;;;;;25.55;14.20;;;;;;;1.66;88.43;102830.16;5569953;32;34133;-59
2024/01/29 07:00:25;;;;;;;29.35;14.98;;;;;;;2.03;100.00;102836.84;5561360;32;33656;-59
2024/01/29 07:03:27;;;;;;;20.48;13.70;;;;;;;2.01;100.00;102841.47;5563495;32;34375;-59
2024/01/29 07:06:31;;;;;;;21.15;12.88;;;;;;;1.71;82.49;102842.88;5561214;32;34304;-59
2024/01/29 07:09:35;;;;;;;19.98;12.48;;;;;;;1.77;94.27;102842.25;5563529;32;34447;-59
2024/01/29 07:12:39;;;;;;;20.30;12.27;;;;;;;1.80;83.01;102847.22;5550018;32;34312;-58
2024/01/29 07:15:43;;;;;;;26.15;13.50;;;;;;;1.74;87.02;102846.03;5551127;32;33726;-58
2024/01/29 07:18:45;;;;;;;23.38;12.95;;;;;;;1.89;77.96;102840.97;5548278;32;34249;-58
2024/01/29 07:21:49;;;;;;;22.98;12.75;;;;;;;1.98;86.68;102855.00;5549048;32;34395;-59
2024/01/29 07:24:51;;;;;;;21.70;13.48;;;;;;;2.01;93.87;102855.50;5551099;32;33802;-58
2024/01/29 07:27:56;;;;;;;19.23;12.15;;;;;;;2.10;100.00;102861.66;5561402;32;33832;-58
2024/01/29 07:30:59;;;;;;;19.17;12.15;;;;;;;1.99;87.66;102861.97;5564543;32;34293;-59
2024/01/29 07:34:01;;;;;;;20.67;12.57;;;;;;;1.97;83.63;102870.06;5560048;32;34998;-56
2024/01/29 07:37:04;;;;;;;21.10;12.27;;;;;;;2.02;82.12;102867.78;5556327;32;33617;-57
2024/01/29 07:40:08;;;;;;;21.52;13.65;;;;;;;2.14;84.64;102855.03;5563001;32;33161;-56
2024/01/29 07:43:10;;;;;;;19.25;12.40;;;;;;;2.10;87.86;102859.84;5567812;32;33642;-57
2024/01/29 07:46:13;;;;;;;20.70;13.90;;;;;;;2.26;86.13;102863.50;5558169;32;33607;-57
2024/01/29 07:49:17;;;;;;;19.20;14.02;;;;;;;2.28;87.56;102866.81;5553897;32;33842;-57
2024/01/29 07:52:20;;;;;;;20.80;12.65;;;;;;;2.62;100.00;102871.97;5567585;32;32338;-57
2024/01/29 07:55:23;;;;;;;18.73;12.60;;;;;;;2.55;88.22;102863.84;5558495;32;33550;-57
2024/01/29 07:58:25;;;;;;;19.45;12.05;;;;;;;2.67;85.28;102864.31;5565292;31;34438;-56
2024/01/29 08:01:28;;;;;;;24.25;12.57;;;;;;;2.85;89.56;102858.00;5564026;31;34268;-57
2024/01/29 08:04:32;;;;;;;21.80;14.00;;;;;;;3.02;86.03;102851.72;5556952;32;33514;-56
2024/01/29 08:07:34;;;;;;;23.55;14.15;;;;;;;3.45;100.00;102862.84;5558183;32;33765;-57
2024/01/29 08:10:37;;;;;;;19.80;13.70;;;;;;;3.37;88.87;102852.25;5548290;32;33096;-57
2024/01/29 08:13:44;;;;;;;20.85;13.00;;;;;;;3.40;87.71;102858.03;5549127;32;33923;-56
2024/01/29 08:16:49;;;;;;;22.02;13.52;;;;;;;3.52;78.08;102847.91;5556798;32;34246;-57
2024/01/29 08:20:00;;;;;;;23.38;14.50;;;;;;;3.58;75.41;102841.91;5565712;32;33369;-57
2024/01/29 08:23:03;;;;;;;24.15;14.30;;;;;;;3.52;76.03;102840.75;5553654;32;33575;-57
2024/01/29 08:26:06;;;;;;;20.62;13.38;;;;;;;3.63;75.23;102842.19;5557792;32;33684;-57
2024/01/29 08:29:09;;;;;;;19.95;14.25;;;;;;;3.65;74.91;102840.22;5556735;32;33632;-57
2024/01/29 08:32:11;;;;;;;23.52;13.55;;;;;;;3.83;74.65;102839.94;5549469;32;34372;-57
2024/01/29 08:35:14;;;;;;;22.65;15.27;;;;;;;4.03;92.32;102845.62;5555787;32;34309;-57
2024/01/29 08:38:16;;;;;;;20.80;14.70;;;;;;;4.11;85.39;102845.56;5556867;32;33719;-57
2024/01/29 08:41:19;;;;;;;26.73;14.77;;;;;;;4.34;84.41;102840.25;5559322;32;33498;-57
2024/01/29 08:44:21;;;;;;;22.20;14.87;;;;;;;4.48;74.67;102847.44;5566647;32;33662;-56
2024/01/29 08:47:24;;;;;;;20.95;13.85;;;;;;;4.47;77.26;102844.97;5558587;32;33730;-56
2024/01/29 08:50:26;;;;;;;24.15;14.32;;;;;;;4.59;72.68;102848.00;5549022;32;34221;-56
2024/01/29 08:53:29;;;;;;;22.55;13.35;;;;;;;4.61;72.15;102849.50;5552678;32;34386;-57
2024/01/29 08:56:31;;;;;;;18.62;11.05;;;;;;;4.88;92.90;102842.75;5549849;32;34505;-57
2024/01/29 08:59:34;;;;;;;22.15;11.23;;;;;;;4.98;77.45;102853.13;5553980;32;33575;-56
2024/01/29 09:02:37;;;;;;;18.55;11.63;;;;;;;5.09;70.45;102855.31;5554497;32;34331;-56
2024/01/29 09:05:41;;;;;;;17.37;10.98;;;;;;;5.17;69.79;102849.94;5565382;32;32920;-57
2024/01/29 09:08:44;;;;;;;18.08;10.68;;;;;;;5.22;82.53;102852.03;5548335;32;33575;-57
2024/01/29 09:11:46;;;;;;;17.40;10.65;;;;;;;5.11;69.62;102855.97;5548459;32;34385;-56
2024/01/29 09:14:48;;;;;;;16.25;10.75;;;;;;;5.22;68.91;102851.19;5548459;32;33553;-56
2024/01/29 09:17:51;;;;;;;18.95;11.38;;;;;;;5.37;68.82;102844.88;5547208;32;33611;-56
2024/01/29 09:20:53;;;;;;;19.52;10.38;;;;;;;5.32;69.96;102855.22;5548294;32;34422;-56
2024/01/29 09:23:58;;;;;;;16.23;11.40;;;;;;;5.57;100.00;102846.97;5552821;32;34266;-57
2024/01/29 09:27:00;;;;;;;16.58;9.63;;;;;;;6.02;80.26;102855.66;5566529;32;34429;-56
2024/01/29 09:30:07;;;;;;;17.00;10.43;;;;;;;5.82;69.10;102848.25;5563207;32;34578;-56
2024/01/29 09:33:09;;;;;;;14.48;9.55;;;;;;;5.73;68.25;102852.06;5565906;32;33545;-56
2024/01/29 09:36:23;;;;;;;17.73;8.68;;;;;;;5.72;68.65;102858.38;5561639;31;33620;-56
2024/01/29 09:39:25;;;;;;;16.73;10.60;;;;;;;5.92;75.01;102866.59;5554758;31;33700;-57
2024/01/29 09:42:30;;;;;;;15.93;9.15;;;;;;;5.85;84.53;102861.19;5551985;31;33587;-57
2024/01/29 09:45:37;;;;;;;13.35;9.10;;;;;;;6.25;75.49;102853.66;5559493;32;33680;-57
2024/01/29 09:48:41;;;;;;;17.13;10.17;;;;;;;6.16;69.34;102859.28;5566869;31;34307;-57
2024/01/29 09:51:46;;;;;;;20.15;12.60;;;;;;;6.32;96.05;102851.91;5561958;32;33625;-56
2024/01/29 09:54:50;;;;;;;17.08;12.57;;;;;;;6.49;73.83;102849.78;5554672;32;33635;-60
2024/01/29 09:57:52;;;;;;;20.48;13.95;;;;;;;6.88;91.44;102851.09;5558070;31;34001;-58
2024/01/29 10:00:56;;;;;;;19.20;14.38;;;;;;;6.75;70.06;102851.81;5560166;32;33559;-58
2024/01/29 10:03:59;;;;;;;20.77;14.52;;;;;;;6.79;94.71;102847.75;5569656;31;33969;-59
2024/01/29 10:07:02;;;;;;;22.25;14.82;;;;;;;6.98;76.35;102850.75;5557548;32;33688;-59
2024/01/29 10:10:11;;;;;;;16.73;12.10;;;;;;;6.72;74.81;102852.22;5549721;32;33780;-59
2024/01/29 10:13:14;;;;;;;16.77;12.68;;;;;;;6.99;87.01;102847.06;5554760;31;33613;-60
2024/01/29 10:16:16;;;;;;;18.17;13.55;;;;;;;7.19;99.15;102841.88;5554299;32;34425;-60
2024/01/29 10:19:19;;;;;;;21.75;12.20;;;;;;;7.17;69.03;102839.38;5550489;32;33603;-59
2024/01/29 10:22:26;;;;;;;12.98;9.07;;;;;;;6.99;66.71;102829.22;5551743;31;33846;-59
2024/01/29 10:25:31;;;;;;;11.52;7.75;;;;;;;6.74;66.12;102831.50;5563522;31;34277;-60
2024/01/29 10:28:34;;;;;;;12.85;7.40;;;;;;;6.86;67.59;102836.31;5552237;32;33708;-60
2024/01/29 10:31:37;;;;;;;10.43;7.87;;;;;;;6.71;65.00;102842.56;5558492;31;33670;-59
2024/01/29 10:34:40;;;;;;;13.32;8.43;;;;;;;6.74;63.32;102836.84;5560501;31;34241;-59
2024/01/29 10:37:46;;;;;;;14.02;8.80;;;;;;;6.70;70.53;102848.91;5549812;32;33201;-59
2024/01/29 10:40:49;;;;;;;22.65;10.13;;;;;;;6.90;68.08;102848.25;5551151;31;33552;-59
2024/01/29 10:43:52;;;;;;;32.83;11.05;;;;;;;7.25;72.52;102849.91;5568573;31;34354;-59
2024/01/29 10:46:59;;;;;;;14.98;9.98;;;;;;;7.17;84.96;102842.03;5556433;32;34276;-60
2024/01/29 10:50:01;;;;;;;15.95;10.63;;;;;;;7.23;82.04;102833.25;5554522;32;33755;-60
2024/01/29 10:53:06;;;;;;;14.63;10.30;;;;;;;7.74;100.00;102830.16;5576722;31;33707;-60
2024/01/29 10:56:09;;;;;;;17.60;11.27;;;;;;;7.62;72.31;102826.44;5565960;32;33824;-60
2024/01/29 10:59:13;;;;;;;18.67;11.40;;;;;;;7.65;96.13;102822.53;5562765;32;34927;-60
2024/01/29 11:02:15;;;;;;;22.70;12.95;;;;;;;7.82;90.17;102828.34;5565242;31;34368;-60
2024/01/29 11:05:18;;;;;;;19.65;12.07;;;;;;;7.69;75.14;102815.78;5557086;32;34316;-57
2024/01/29 11:08:26;;;;;;;17.48;11.57;;;;;;;7.92;81.56;102802.91;5555981;32;34288;-56
2024/01/29 11:11:30;;;;;;;18.95;11.85;;;;;;;7.85;69.14;102806.59;5555117;31;34336;-56
2024/01/29 11:14:32;;;;;;;18.20;11.43;;;;;;;7.86;64.86;102795.69;5558620;31;33823;-57
2024/01/29 11:17:35;;;;;;;16.77;11.48;;;;;;;7.54;62.35;102797.25;5565157;32;33712;-57
2024/01/29 11:20:40;;;;;;;15.40;9.70;;;;;;;7.33;62.18;102790.19;5557364;31;34566;-56
2024/01/29 11:23:47;;;;;;;16.62;10.82;;;;;;;7.30;64.20;102779.91;5551794;32;33922;-57
2024/01/29 11:26:49;;;;;;;16.73;12.15;;;;;;;7.26;61.51;102784.03;5549815;32;33697;-57
2024/01/29 11:29:55;;;;;;;;;;;;;;;7.17;62.18;102785.19;5551062;31;31447;-56
2024/01/29 11:33:16;;;;;;;16.58;12.10;;;;;;;7.46;96.37;102773.41;5557688;32;34719;-57
2024/01/29 11:36:21;;;;;;;15.90;11.55;;;;;;;7.72;70.63;102765.47;5550905;32;33653;-57
2024/01/29 11:39:25;;;;;;;16.48;11.07;;;;;;;7.59;62.62;102760.09;5549892;31;33634;-57
2024/01/29 11:42:28;;;;;;;18.12;11.55;;;;;;;7.62;63.96;102756.22;5551638;32;33761;-57
2024/01/29 11:45:31;;;;;;;18.62;10.70;;;;;;;7.59;62.77;102762.78;5557005;32;33727;-57
2024/01/29 11:48:33;;;;;;;16.40;11.18;;;;;;;7.47;63.63;102751.03;5556278;32;34361;-57
2024/01/29 11:51:37;;;;;;;13.18;10.00;;;;;;;7.48;63.17;102758.84;5557549;31;33649;-56
2024/01/29 11:54:40;;;;;;;13.93;10.40;;;;;;;7.60;68.70;102751.06;5562117;32;33699;-57
2024/01/29 11:57:45;;;;;;;16.48;10.80;;;;;;;7.96;93.00;102748.03;5559623;32;34003;-56
2024/01/29 12:00:51;;;;;;;18.23;11.30;;;;;;;7.79;64.31;102741.44;5558201;31;34287;-57
2024/01/29 12:03:55;;;;;;;17.80;10.52;;;;;;;8.04;69.95;102744.34;5561469;31;33596;-57
2024/01/29 12:06:58;;;;;;;16.15;10.77;;;;;;;8.00;70.56;102743.09;5557690;32;34452;-57
2024/01/29 12:10:05;;;;;;;14.73;9.98;;;;;;;8.33;89.13;102742.28;5556237;32;34435;-56
2024/01/29 12:13:12;;;;;;;16.00;10.43;;;;;;;8.09;74.15;102741.06;5559497;32;33624;-59
2024/01/29 12:16:16;;;;;;;15.82;9.52;;;;;;;8.03;80.17;102737.34;5555634;31;33242;-60
2024/01/29 12:19:21;;;;;;;14.15;10.38;;;;;;;8.33;81.11;102739.59;5560068;32;33582;-59
2024/01/29 12:22:24;;;;;;;17.62;10.65;;;;;;;8.61;90.20;102745.56;5550231;32;33716;-60
2024/01/29 12:25:26;;;;;;;15.07;9.80;;;;;;;8.43;74.28;102745.37;5552806;32;34334;-60
2024/01/29 12:28:28;;;;;;;12.85;8.75;;;;;;;8.65;88.82;102738.78;5563261;31;34359;-60
2024/01/29 12:31:31;;;;;;;14.40;9.80;;;;;;;8.44;63.76;102742.53;5552957;32;34049;-60
2024/01/29 12:34:33;;;;;;;14.98;9.82;;;;;;;8.72;96.09;102736.06;5560787;31;33705;-60
2024/01/29 12:37:35;;;;;;;16.37;9.68;;;;;;;8.60;64.92;102735.06;5551431;31;33695;-59
2024/01/29 12:40:41;;;;;;;17.45;10.13;;;;;;;8.59;62.40;102734.25;5561239;32;34411;-60
2024/01/29 12:43:49;;;;;;;14.93;8.45;;;;;;;8.46;63.04;102729.75;5562879;32;33599;-60
2024/01/29 12:46:56;;;;;;;15.63;9.52;;;;;;;8.86;76.84;102729.66;5565995;31;34283;-60
2024/01/29 12:49:59;;;;;;;15.40;8.90;;;;;;;8.89;68.74;102723.06;5565729;32;33774;-60
2024/01/29 12:53:03;;;;;;;11.32;8.35;;;;;;;8.54;60.25;102725.22;5553952;32;33756;-59
2024/01/29 12:56:05;;;;;;;11.43;7.97;;;;;;;8.07;60.75;102730.56;5558056;31;33741;-60
2024/01/29 12:59:08;;;;;;;13.00;8.23;;;;;;;8.26;66.17;102725.44;5550529;32;34299;-60
2024/01/29 13:02:10;;;;;;;14.43;9.63;;;;;;;8.19;59.71;102723.59;5558331;31;33681;-59
2024/01/29 13:05:14;;;;;;;15.63;7.97;;;;;;;8.27;62.91;102732.41;5566632;32;33651;-60
2024/01/29 13:08:16;;;;;;;11.90;7.78;;;;;;;8.36;71.00;102726.66;5565299;31;33859;-60
2024/01/29 13:11:19;;;;;;;13.73;7.43;;;;;;;8.36;58.91;102723.97;5563068;32;33784;-60
2024/01/29 13:14:22;;;;;;;11.20;8.05;;;;;;;8.18;66.84;102723.81;5567393;31;34194;-60
2024/01/29 13:17:29;;;;;;;13.25;7.75;;;;;;;8.30;74.45;102723.97;5557807;31;34296;-60
2024/01/29 13:20:32;;;;;;;14.43;8.65;;;;;;;8.46;64.59;102721.72;5563721;32;34584;-60
2024/01/29 13:23:35;;;;;;;14.35;8.70;;;;;;;8.47;65.37;102722.53;5565820;32;33832;-57
2024/01/29 13:26:40;;;;;;;14.40;8.43;;;;;;;8.51;67.96;102723.78;5564804;31;33716;-55
2024/01/29 13:29:43;;;;;;;15.37;8.83;;;;;;;8.30;60.25;102718.63;5569115;31;32928;-56
2024/01/29 13:32:45;;;;;;;10.77;7.68;;;;;;;8.11;58.72;102725.63;5566925;31;34777;-56
2024/01/29 13:35:49;;;;;;;12.75;8.57;;;;;;;8.20;87.89;102730.56;5555513;32;33620;-56
2024/01/29 13:38:52;;;;;;;15.10;8.95;;;;;;;8.49;81.47;102725.84;5551052;32;34245;-56
2024/01/29 13:41:54;;;;;;;13.38;8.32;;;;;;;8.19;62.38;102725.44;5571540;31;34244;-55
2024/01/29 13:44:57;;;;;;;13.95;8.95;;;;;;;8.20;75.97;102716.38;5565581;31;33603;-56
2024/01/29 13:48:03;;;;;;;11.57;7.95;;;;;;;8.33;76.62;102720.91;5560922;31;34350;-55
2024/01/29 13:51:05;;;;;;;13.90;7.70;;;;;;;8.24;62.49;102714.94;5567834;32;34323;-56
2024/01/29 13:54:08;;;;;;;32.58;19.55;;;;;;;8.22;60.15;102715.16;5562384;32;33692;-57
2024/01/29 13:57:12;;;;;;;18.87;10.77;;;;;;;8.34;73.38;102727.87;5564031;31;34340;-56
2024/01/29 14:00:15;;;;;;;23.02;20.67;;;;;;;8.34;78.00;102719.88;5556170;32;33920;-55
2024/01/29 14:03:18;;;;;;;13.13;8.40;;;;;;;8.68;86.34;102718.81;5552437;32;33636;-55
2024/01/29 14:06:20;;;;;;;14.68;8.55;;;;;;;8.99;81.97;102717.25;5553674;31;33467;-56
2024/01/29 14:09:23;;;;;;;14.73;9.07;;;;;;;8.84;87.99;102720.19;5550551;32;34335;-55
2024/01/29 14:12:28;;;;;;;13.30;8.02;;;;;;;8.52;62.33;102724.59;5550691;32;34239;-55
2024/01/29 14:15:30;;;;;;;14.73;8.23;;;;;;;8.77;76.01;102722.88;5551593;31;33661;-55
2024/01/29 14:18:34;;;;;;;13.32;8.35;;;;;;;8.78;64.88;102713.84;5568649;32;34232;-55
2024/01/29 14:21:36;;;;;;;14.70;8.02;;;;;;;8.58;88.25;102726.44;5569632;32;34518;-56
2024/01/29 14:24:39;;;;;;;13.68;8.32;;;;;;;8.49;63.36;102725.03;5569948;32;33644;-56
2024/01/29 14:27:42;;;;;;;14.15;9.13;;;;;;;8.32;67.29;102719.28;5561010;31;34082;-56
2024/01/29 14:30:44;;;;;;;14.90;8.40;;;;;;;8.32;70.98;102720.09;5568874;32;34360;-56
2024/01/29 14:33:46;;;;;;;12.95;8.20;;;;;;;8.35;59.91;102719.66;5553685;32;33569;-56
2024/01/29 14:36:49;;;;;;;11.05;8.27;;;;;;;8.08;60.33;102721.56;5541678;32;33774;-54
2024/01/29 14:39:52;;;;;;;12.77;7.90;;;;;;;8.33;82.47;102718.22;5556821;32;33630;-56
2024/01/29 14:42:55;;;;;;;10.57;7.50;;;;;;;8.40;67.09;102717.22;5559479;32;33893;-55
2024/01/29 14:45:57;;;;;;;13.25;8.02;;;;;;;8.23;63.67;102718.66;5560016;32;34439;-55
2024/01/29 14:49:00;;;;;;;14.85;7.97;;;;;;;8.03;61.53;102728.53;5569578;32;34307;-55
2024/01/29 14:52:04;;;;;;;17.55;7.60;;;;;;;7.90;62.32;102729.34;5569624;32;33780;-55
2024/01/29 14:55:07;;;;;;;12.15;7.95;;;;;;;7.87;61.20;102727.06;5567499;32;33916;-55
2024/01/29 14:58:09;;;;;;;17.15;9.18;;;;;;;7.86;65.48;102726.25;5568060;31;34819;-55
2024/01/29 15:01:12;;;;;;;12.18;8.10;;;;;;;7.86;64.07;102731.59;5568840;32;33862;-55
2024/01/29 15:04:14;;;;;;;12.60;7.15;;;;;;;7.86;65.43;102736.13;5568125;31;33841;-55
2024/01/29 15:07:17;;;;;;;13.52;7.95;;;;;;;7.89;61.69;102728.53;5564404;31;34479;-56
2024/01/29 15:10:20;;;;;;;13.62;7.35;;;;;;;7.81;61.98;102739.38;5549031;32;34384;-55
2024/01/29 15:13:23;;;;;;;11.93;7.75;;;;;;;7.84;60.73;102743.50;5549454;32;33726;-55
2024/01/29 15:16:25;;;;;;;24.23;19.87;;;;;;;7.82;71.54;102743.72;5551670;31;33780;-54
2024/01/29 15:19:28;;;;;;;34.10;14.43;;;;;;;7.90;73.26;102735.50;5569171;32;33784;-55
2024/01/29 15:22:30;;;;;;;14.23;9.38;;;;;;;7.88;62.99;102736.72;5569243;32;34420;-56
2024/01/29 15:25:33;;;;;;;17.45;9.05;;;;;;;7.79;61.78;102738.78;5569292;32;34390;-55
2024/01/29 15:28:35;;;;;;;14.93;9.07;;;;;;;7.62;73.13;102737.53;5569369;32;34006;-55
2024/01/29 15:31:38;;;;;;;13.77;8.07;;;;;;;7.63;63.13;102739.16;5570071;31;33710;-56
2024/01/29 15:34:47;;;;;;;12.75;8.60;;;;;;;7.52;64.17;102736.06;5569103;32;34428;-56
2024/01/29 15:37:50;;;;;;;16.48;9.18;;;;;;;7.54;75.00;102738.53;5569407;32;33656;-55
2024/01/29 15:40:52;;;;;;;13.02;8.68;;;;;;;7.46;62.54;102742.22;5568961;32;34429;-55
2024/01/29 15:43:55;;;;;;;15.82;7.97;;;;;;;7.46;63.10;102749.41;5567505;31;33649;-57
2024/01/29 15:46:58;;;;;;;14.10;8.68;;;;;;;7.32;62.59;102750.34;5569980;31;33634;-57
2024/01/29 15:50:00;;;;;;;17.12;8.43;;;;;;;7.25;62.15;102753.84;5568948;32;33653;-56
2024/01/29 15:53:03;;;;;;;15.50;9.60;;;;;;;7.16;72.24;102764.91;5568081;31;33181;-57
2024/01/29 15:56:05;;;;;;;17.05;9.38;;;;;;;7.07;64.49;102762.37;5568893;32;34394;-57
2024/01/29 15:59:08;;;;;;;16.10;8.90;;;;;;;7.06;63.88;102760.75;5563512;31;33589;-56
2024/01/29 16:02:10;;;;;;;15.52;9.20;;;;;;;6.88;70.62;102770.28;5555035;31;33797;-57
2024/01/29 16:05:13;;;;;;;15.38;9.35;;;;;;;6.79;64.95;102778.44;5583790;31;34343;-57
2024/01/29 16:08:16;;;;;;;16.42;9.55;;;;;;;6.78;63.42;102773.28;5587969;31;34443;-57
2024/01/29 16:11:19;;;;;;;14.55;9.45;;;;;;;6.68;64.32;102770.97;5567900;32;34301;-56
2024/01/29 16:14:21;;;;;;;23.10;10.68;;;;;;;6.65;64.43;102773.22;5568895;32;33707;-56
2024/01/29 16:17:25;;;;;;;19.95;10.95;;;;;;;6.56;65.14;102778.72;5568552;32;33587;-56
2024/01/29 16:20:27;;;;;;;19.10;9.85;;;;;;;6.54;65.02;102777.25;5569143;32;33778;-57
2024/01/29 16:23:30;;;;;;;18.40;11.10;;;;;;;6.53;65.13;102772.94;5568641;32;33649;-56
2024/01/29 16:26:32;;;;;;;24.77;13.02;;;;;;;6.46;65.89;102778.22;5568650;32;33574;-57
2024/01/29 16:29:34;;;;;;;18.58;10.38;;;;;;;6.30;77.00;102783.84;5568690;32;34586;-57
2024/01/29 16:32:37;;;;;;;25.67;12.88;;;;;;;6.24;67.55;102773.94;5568593;32;33661;-56
2024/01/29 16:35:39;;;;;;;28.00;13.35;;;;;;;6.24;82.20;102777.44;5568758;32;33737;-57
2024/01/29 16:38:41;;;;;;;27.95;14.98;;;;;;;6.09;68.68;102771.34;5568621;32;34334;-57
2024/01/29 16:41:44;;;;;;;25.85;13.45;;;;;;;6.03;67.77;102772.97;5568591;32;34411;-57
2024/01/29 16:44:52;;;;;;;26.52;14.07;;;;;;;5.94;67.43;102778.59;5568757;32;33321;-57
